ADDS METAR Data INFO
IDs: Format: Raw Decoded Include TAF

Data at: 0938 UTC 25 Nov 2017

KGYI 250915Z AUTO 13004KT 10SM CLR 12/04 A2988 RMK AO2 T01190040
KGYI 250855Z AUTO 12004KT 10SM CLR 12/04 A2989 RMK AO2 T01200039
KGYI 250835Z AUTO 10003KT 10SM CLR 13/04 A2988 RMK AO2 T01280038
KGYI 250815Z AUTO 13004KT 10SM CLR 13/04 A2987 RMK AO2 T01320040
KGYI 250755Z AUTO 15007KT 10SM CLR 14/04 A2985 RMK AO2 T01350040
KGYI 250735Z AUTO 14009KT 10SM CLR 14/04 A2985 RMK AO2 T01370040
KGYI 250715Z AUTO 15009KT 10SM CLR 14/04 A2984 RMK AO2 T01370040
KGYI 250655Z AUTO 15010KT 10SM CLR 14/04 A2984 RMK AO2 T01370040
KGYI 250635Z AUTO 15011KT 10SM CLR 14/04 A2984 RMK AO2 T01390040
KGYI 250615Z AUTO 14009KT 10SM CLR 14/04 A2985 RMK AO2 T01390040
KGYI 250555Z AUTO 13009KT 10SM CLR 14/04 A2985 RMK AO2 T01410038 10189 20139 402520065
KGYI 250535Z AUTO 13008KT 10SM CLR 14/04 A2986 RMK AO2 T01400037
KGYI 250515Z AUTO 11006KT 10SM CLR 15/04 A2986 RMK AO2 T01450035
KGYI 250455Z AUTO 13006KT 10SM CLR 15/04 A2986 RMK AO2 T01480035
KGYI 250435Z AUTO 15007KT 10SM CLR 15/03 A2985 RMK AO2 T01520033
KGYI 250415Z AUTO 15008KT 10SM CLR 15/03 A2984 RMK AO2 T01510033
KGYI 250355Z AUTO 15009KT 10SM CLR 16/03 A2983 RMK AO2 T01560033
KGYI 250335Z AUTO 17010G15KT 10SM CLR 16/03 A2982 RMK AO2 T01580033
KGYI 250315Z AUTO 16011KT 10SM CLR 16/03 A2982 RMK AO2 T01620032
KGYI 250255Z AUTO 16011G16KT 10SM CLR 17/03 A2981 RMK AO2 T01660031
KGYI 250235Z AUTO 16011KT 10SM CLR 17/03 A2980 RMK AO2 T01740030
KGYI 250215Z AUTO 16015KT 10SM CLR 18/03 A2979 RMK AO2 T01780030
KGYI 250155Z AUTO 16015G20KT 10SM CLR 18/03 A2979 RMK AO2 T01780030
KGYI 250135Z AUTO 16011KT 10SM CLR 18/03 A2979 RMK AO2 T01800030
KGYI 250115Z AUTO 15010KT 10SM CLR 18/03 A2979 RMK AO2 T01790030
KGYI 250055Z AUTO 15011KT 10SM CLR 18/03 A2978 RMK AO2 T01810030
KGYI 250035Z AUTO 15010KT 10SM CLR 18/03 A2979 RMK AO2 T01820030
KGYI 250015Z AUTO 15009KT 10SM CLR 19/03 A2978 RMK AO2 T01870028
KGYI 242355Z AUTO 14007KT 10SM CLR 19/03 A2977 RMK AO2 T01900025 10252 20190
KGYI 242335Z AUTO 15009KT 10SM CLR 20/02 A2978 RMK AO2 T01950024
KGYI 242315Z AUTO 15007KT 10SM CLR 20/02 A2978 RMK AO2 T01960023
KGYI 242255Z AUTO 16010KT 10SM CLR 21/02 A2978 RMK AO2 T02070023
KGYI 242235Z AUTO 17010KT 10SM CLR 21/02 A2978 RMK AO2 T02090023
KGYI 242215Z AUTO 17011KT 10SM CLR 22/02 A2979 RMK AO2 T02210019
KGYI 242155Z AUTO 17013G20KT 10SM CLR 24/01 A2979 RMK AO2 T02350014
KGYI 242135Z AUTO 19014G18KT 10SM CLR 24/01 A2980 RMK AO2 T02410011
KGYI 242115Z AUTO 18014G22KT 10SM CLR 25/00 A2979 RMK AO2 T02450004
KGYI 242055Z AUTO 19017G21KT 10SM CLR 25/00 A2979 RMK AO2 T02490000
KGYI 242035Z AUTO 19015KT 10SM CLR 25/00 A2980 RMK AO2 T02520002
KGYI 242015Z AUTO 18016G21KT 10SM CLR 25/00 A2980 RMK AO2 T02490002
KGYI 241955Z AUTO 19013KT 10SM CLR 25/01 A2981 RMK AO2 T02460009
KGYI 241935Z AUTO 18014G20KT 10SM CLR 25/01 A2982 RMK AO2 T02460007
KGYI 241915Z AUTO 19016KT 10SM CLR 25/01 A2983 RMK AO2 T02470005
KGYI 241855Z AUTO 19018G21KT 10SM CLR 25/01 A2984 RMK AO2 T02460009
KGYI 241835Z AUTO 19016G23KT 10SM CLR 24/00 A2985 RMK AO2 T02380003
KGYI 241815Z AUTO 20017G20KT 10SM CLR 24/01 A2987 RMK AO2 T02400007
KGYI 241755Z AUTO 18017G20KT 10SM CLR 23/01 A2988 RMK AO2 T02310008 10231 20065
KGYI 241735Z AUTO 19014KT 10SM CLR 23/01 A2989 RMK AO2 T02270007
KGYI 241715Z AUTO 20013KT 10SM CLR 22/01 A2991 RMK AO2 T02210009
KGYI 241655Z AUTO 18010KT 10SM CLR 22/01 A2993 RMK AO2 T02160013
KGYI 241635Z AUTO 19008KT 10SM CLR 20/02 A2993 RMK AO2 T02030016
KGYI 241615Z AUTO 18007KT 10SM CLR 19/01 A2993 RMK AO2 T01860013
KGYI 241555Z AUTO 18007KT 10SM CLR 17/01 A2994 RMK AO2 T01740011
KGYI 241535Z AUTO 19007KT 10SM CLR 16/01 A2994 RMK AO2 T01570012
KGYI 241515Z AUTO 18008KT 10SM CLR 14/01 A2994 RMK AO2 T01400012
KGYI 241455Z AUTO 18007KT 10SM CLR 12/01 A2994 RMK AO2 T01240009
KGYI 241435Z AUTO 17007KT 10SM CLR 11/01 A2994 RMK AO2 T01110007
KGYI 241415Z AUTO 17008KT 10SM CLR 10/01 A2994 RMK AO2 T01000006
KGYI 241355Z AUTO 18007KT 10SM CLR 08/00 A2995 RMK AO2 T00820004
KGYI 241335Z AUTO 17007KT 10SM CLR 08/00 A2994 RMK AO2 T00750000
KGYI 241315Z AUTO 17008KT 10SM CLR 07/00 A2994 RMK AO2 T00650000
KGYI 241255Z AUTO 17009KT 10SM CLR 07/00 A2993 RMK AO2 T00740000
KGYI 241235Z AUTO 17008KT 10SM CLR 07/00 A2994 RMK AO2 T00730000
KGYI 241215Z AUTO 17008KT 10SM CLR 08/00 A2994 RMK AO2 T00750000
KGYI 241155Z AUTO 17007KT 10SM CLR 07/00 A2995 RMK AO2 T00690000 10100 20069
KGYI 241135Z AUTO 18006KT 10SM CLR 08/00 A2995 RMK AO2 T00771002
KGYI 241115Z AUTO 17007KT 10SM CLR 08/00 A2995 RMK AO2 T00841002
KGYI 241055Z AUTO 17007KT 10SM CLR 08/00 A2996 RMK AO2 T00811002
KGYI 241035Z AUTO 17007KT 10SM CLR 08/00 A2996 RMK AO2 T00801004
KGYI 241015Z AUTO 18008KT 10SM CLR 08/00 A2997 RMK AO2 T00811005
KGYI 240955Z AUTO 18007KT 10SM CLR 09/00 A2996 RMK AO2 T00941005
KGYI 240935Z AUTO 17009KT 10SM CLR 10/00 A2996 RMK AO2 T00951005
KGYI 240915Z AUTO 17008KT 10SM CLR 09/00 A2997 RMK AO2 T00921005
KGYI 240855Z AUTO 17008KT 10SM CLR 09/00 A2997 RMK AO2 T00891005
KGYI 240835Z AUTO 17008KT 10SM CLR 09/00 A2998 RMK AO2 T00901005
KGYI 240815Z AUTO 17008KT 10SM CLR 09/00 A2998 RMK AO2 T00871003
KGYI 240755Z AUTO 17008KT 10SM CLR 10/00 A2999 RMK AO2 T00951005
KGYI 240735Z AUTO 17008KT 10SM CLR 09/00 A3000 RMK AO2 T00881002
KGYI 240715Z AUTO 18008KT 10SM CLR 09/00 A3000 RMK AO2 T00861003
KGYI 240655Z AUTO 17007KT 10SM CLR 10/00 A3001 RMK AO2 T00971005
KGYI 240635Z AUTO 17007KT 10SM CLR 10/00 A3002 RMK AO2 T01001005
KGYI 240615Z AUTO 17007KT 10SM CLR 09/00 A3002 RMK AO2 T00861002
KGYI 240555Z AUTO 18007KT 10SM CLR 09/00 A3002 RMK AO2 T00861001 10130 20086 401971011
KGYI 240535Z AUTO 17009KT 10SM CLR 10/00 A3002 RMK AO2 T00970000
KGYI 240515Z AUTO 17009KT 10SM CLR 09/00 A3003 RMK AO2 T00920000
KGYI 240455Z AUTO 17008KT 10SM CLR 10/00 A3004 RMK AO2 T00960000
KGYI 240435Z AUTO 17008KT 10SM CLR 11/00 A3004 RMK AO2 T01051003
KGYI 240415Z AUTO 17009KT 10SM CLR 11/M01 A3004 RMK AO2 T01061006
KGYI 240355Z AUTO 17008KT 10SM CLR 11/M01 A3005 RMK AO2 T01061008
KGYI 240335Z AUTO 16007KT 10SM CLR 11/M01 A3005 RMK AO2 T01101010
KGYI 240315Z AUTO 16008KT 10SM CLR 12/M01 A3005 RMK AO2 T01151010
KGYI 240255Z AUTO 16007KT 10SM CLR 12/M01 A3005 RMK AO2 T01151010
KGYI 240235Z AUTO 16008KT 10SM CLR 12/M01 A3005 RMK AO2 T01171008
KGYI 240215Z AUTO 16007KT 10SM CLR 12/M01 A3005 RMK AO2 T01151007
KGYI 240155Z AUTO 16007KT 10SM CLR 12/00 A3005 RMK AO2 T01171005
KGYI 240135Z AUTO 15006KT 10SM CLR 12/00 A3005 RMK AO2 T01191005
KGYI 240115Z AUTO 16006KT 10SM CLR 13/00 A3005 RMK AO2 T01251005
KGYI 240055Z AUTO 15007KT 10SM CLR 13/M01 A3005 RMK AO2 T01261007
KGYI 240035Z AUTO 16004KT 10SM CLR 12/M01 A3005 RMK AO2 T01181009
KGYI 240015Z AUTO 18005KT 10SM CLR 12/M01 A3004 RMK AO2 T01191008
KGYI 232355Z AUTO 18005KT 10SM CLR 13/M01 A3004 RMK AO2 T01271008 10197 20127
KGYI 232335Z AUTO 18006KT 10SM CLR 13/M01 A3004 RMK AO2 T01331008
KGYI 232315Z AUTO 17007KT 10SM CLR 14/M01 A3004 RMK AO2 T01371006
KGYI 232255Z AUTO 18006KT 10SM CLR 16/M01 A3005 RMK AO2 T01611006
KGYI 232235Z AUTO 17006KT 10SM CLR 18/M01 A3005 RMK AO2 T01791011
KGYI 232215Z AUTO 18006KT 10SM CLR 19/M02 A3005 RMK AO2 T01861016
KGYI 232155Z AUTO 18007KT 10SM CLR 19/M02 A3005 RMK AO2 T01901018